createdAt,value
2022-08-03T00:01:06.119Z,38.26
2022-08-03T00:02:22.487Z,38.01
2022-08-03T00:03:38.868Z,38.01
2022-08-03T00:04:55.288Z,38.50
2022-08-03T00:06:11.679Z,38.25
2022-08-03T00:07:28.389Z,37.89
2022-08-03T00:08:44.791Z,38.16
2022-08-03T00:10:01.260Z,38.20
2022-08-03T00:11:19.610Z,38.29
2022-08-03T00:12:35.983Z,38.48
2022-08-03T00:13:52.643Z,38.26
2022-08-03T00:15:11.351Z,38.63
2022-08-03T00:16:30.322Z,38.78
2022-08-03T00:17:53.121Z,38.90
2022-08-03T00:19:09.895Z,39.09
2022-08-03T00:20:26.594Z,38.97
2022-08-03T00:21:44.936Z,39.21
2022-08-03T00:23:01.297Z,39.06
2022-08-03T00:24:17.708Z,39.20
2022-08-03T00:25:36.028Z,39.33
2022-08-03T00:26:52.687Z,39.49
2022-08-03T00:28:09.048Z,39.32
2022-08-03T00:29:25.469Z,39.42
2022-08-03T00:30:41.839Z,39.55
2022-08-03T00:32:00.675Z,39.99
2022-08-03T00:33:17.421Z,39.95
2022-08-03T00:34:36.586Z,39.97
2022-08-03T00:35:56.022Z,39.96
2022-08-03T00:37:12.416Z,40.04
2022-08-03T00:38:28.882Z,40.26
2022-08-03T00:39:45.542Z,40.12
2022-08-03T00:41:01.907Z,40.14
2022-08-03T00:42:18.608Z,40.43
2022-08-03T00:43:35.126Z,40.28
2022-08-03T00:44:51.714Z,39.86
2022-08-03T00:46:08.390Z,39.81
2022-08-03T00:47:24.865Z,40.22
2022-08-03T00:48:41.351Z,40.10
2022-08-03T00:49:57.738Z,40.33
2022-08-03T00:51:14.110Z,40.30
2022-08-03T00:52:30.812Z,40.30
2022-08-03T00:53:47.233Z,40.64
2022-08-03T00:55:03.619Z,40.56
2022-08-03T00:56:20.000Z,40.37
2022-08-03T00:57:38.372Z,40.43
2022-08-03T00:58:55.025Z,40.56
2022-08-03T01:00:11.417Z,40.54
2022-08-03T01:01:32.362Z,40.57
2022-08-03T01:02:49.102Z,40.63
2022-08-03T01:04:05.474Z,40.75
2022-08-03T01:05:24.245Z,40.26
2022-08-03T01:06:40.614Z,40.71
2022-08-03T01:07:57.035Z,40.82
2022-08-03T01:09:13.407Z,41.21
2022-08-03T01:10:31.652Z,41.25
2022-08-03T01:12:00.147Z,41.00
2022-08-03T01:14:01.243Z,41.23
2022-08-03T01:14:30.816Z,40.82
2022-08-03T01:15:47.201Z,41.09
2022-08-03T01:17:03.591Z,41.29
2022-08-03T01:18:20.338Z,41.02
2022-08-03T01:19:36.712Z,41.17
2022-08-03T01:20:53.093Z,41.15
2022-08-03T01:22:09.550Z,41.16
2022-08-03T01:23:28.994Z,41.58
2022-08-03T01:24:47.723Z,41.25
2022-08-03T01:26:04.157Z,41.21
2022-08-03T01:27:20.564Z,41.60
2022-08-03T01:28:36.986Z,41.64
2022-08-03T01:29:55.333Z,41.63
2022-08-03T01:31:11.986Z,41.65
2022-08-03T01:32:59.944Z,41.44
2022-08-03T01:33:49.636Z,41.51
2022-08-03T01:35:07.979Z,41.78
2022-08-03T01:36:24.460Z,42.23
2022-08-03T01:37:43.099Z,42.34
2022-08-03T01:38:59.469Z,42.04
2022-08-03T01:40:15.858Z,42.11
2022-08-03T01:41:32.230Z,42.43
2022-08-03T01:42:48.652Z,42.34
2022-08-03T01:44:29.417Z,42.42
2022-08-03T01:45:27.481Z,42.55
2022-08-03T01:46:48.761Z,42.48
2022-08-03T01:48:05.421Z,42.30
2022-08-03T01:49:23.833Z,42.62
2022-08-03T01:50:40.485Z,42.57
2022-08-03T01:52:04.486Z,43.00
2022-08-03T01:53:20.077Z,42.81
2022-08-03T01:54:36.437Z,42.62
2022-08-03T01:55:52.816Z,42.66
2022-08-03T01:57:09.483Z,42.92
2022-08-03T01:58:25.967Z,42.79
2022-08-03T01:59:42.345Z,42.93
2022-08-03T02:01:00.750Z,43.22
2022-08-03T02:02:33.469Z,42.93
2022-08-03T02:03:38.392Z,43.20
2022-08-03T02:04:59.611Z,42.96
2022-08-03T02:07:00.697Z,42.87
2022-08-03T02:07:40.123Z,42.95
2022-08-03T02:08:57.753Z,42.87
2022-08-03T02:10:14.137Z,42.69
2022-08-03T02:11:30.555Z,42.51
2022-08-03T02:12:50.982Z,42.75
2022-08-03T02:14:07.511Z,42.62
2022-08-03T02:15:24.185Z,42.77
2022-08-03T02:16:42.924Z,42.65
2022-08-03T02:17:59.287Z,42.50
2022-08-03T02:19:15.666Z,42.87
2022-08-03T02:20:32.038Z,42.46
2022-08-03T02:21:56.927Z,42.42
2022-08-03T02:23:09.970Z,42.50
2022-08-03T02:24:26.348Z,42.56
2022-08-03T02:25:42.721Z,42.67
2022-08-03T02:26:59.151Z,42.73
2022-08-03T02:28:15.810Z,42.48
2022-08-03T02:29:39.418Z,42.60
2022-08-03T02:30:53.882Z,42.70
2022-08-03T02:32:10.442Z,42.70
2022-08-03T02:33:26.801Z,42.46
2022-08-03T02:34:43.462Z,42.50
2022-08-03T02:35:59.851Z,42.81
2022-08-03T02:37:16.253Z,42.38
2022-08-03T02:38:32.625Z,42.33
2022-08-03T02:39:49.008Z,42.21
2022-08-03T02:41:05.646Z,42.31
2022-08-03T02:42:22.108Z,42.48
2022-08-03T02:43:57.635Z,42.71
2022-08-03T02:44:59.785Z,42.56
2022-08-03T02:46:16.154Z,42.73
2022-08-03T02:47:53.960Z,42.72
2022-08-03T02:48:54.101Z,42.77
2022-08-03T02:50:10.495Z,43.05
2022-08-03T02:51:28.798Z,42.74
2022-08-03T02:52:45.210Z,42.78
2022-08-03T02:54:01.871Z,42.73
2022-08-03T02:55:18.250Z,42.56
2022-08-03T02:56:34.632Z,42.96
2022-08-03T02:57:51.094Z,42.87
2022-08-03T02:59:07.455Z,43.03
2022-08-03T03:00:28.375Z,43.07
2022-08-03T03:01:44.994Z,43.23
2022-08-03T03:03:01.465Z,43.11
2022-08-03T03:04:17.816Z,42.99
2022-08-03T03:05:54.926Z,43.15
2022-08-03T03:07:01.837Z,43.28
2022-08-03T03:08:25.913Z,43.23
2022-08-03T03:09:45.787Z,43.12
2022-08-03T03:11:02.167Z,43.16
2022-08-03T03:12:18.804Z,43.20
2022-08-03T03:13:35.219Z,43.67
2022-08-03T03:14:51.580Z,43.56
2022-08-03T03:16:07.961Z,43.23
2022-08-03T03:17:24.331Z,43.53
2022-08-03T03:18:41.021Z,42.91
2022-08-03T03:19:59.352Z,43.03
2022-08-03T03:21:16.557Z,43.05
2022-08-03T03:22:36.482Z,42.99
2022-08-03T03:23:54.849Z,42.98
2022-08-03T03:25:11.498Z,43.46
2022-08-03T03:26:27.876Z,42.91
2022-08-03T03:27:44.265Z,43.11
2022-08-03T03:29:05.567Z,42.88
2022-08-03T03:30:23.916Z,43.19
2022-08-03T03:31:40.576Z,42.85
2022-08-03T03:32:56.946Z,43.21
2022-08-03T03:34:15.319Z,43.54
2022-08-03T03:35:37.160Z,43.30
2022-08-03T03:36:56.499Z,43.31
2022-08-03T03:38:13.157Z,43.09
2022-08-03T03:39:31.511Z,43.39
2022-08-03T03:40:47.882Z,43.24
2022-08-03T03:42:04.273Z,42.92
2022-08-03T03:43:20.641Z,42.92
2022-08-03T03:44:37.354Z,42.93
2022-08-03T03:45:53.742Z,43.45
2022-08-03T03:47:12.075Z,43.33
2022-08-03T03:48:32.280Z,43.04
2022-08-03T03:49:48.725Z,43.21
2022-08-03T03:51:09.835Z,42.95
2022-08-03T03:52:26.266Z,43.01
2022-08-03T03:53:44.637Z,43.12
2022-08-03T03:55:03.066Z,43.12
2022-08-03T03:56:19.427Z,43.15
2022-08-03T03:57:36.097Z,43.26
2022-08-03T03:58:52.494Z,43.12
2022-08-03T04:00:10.841Z,43.54
2022-08-03T04:01:29.170Z,43.62
2022-08-03T04:02:47.509Z,43.61
2022-08-03T04:04:06.159Z,43.60
2022-08-03T04:05:24.516Z,43.19
2022-08-03T04:06:42.831Z,43.12
2022-08-03T04:07:59.204Z,42.93
2022-08-03T04:09:15.613Z,43.09
2022-08-03T04:10:32.305Z,43.10
2022-08-03T04:11:50.633Z,42.99
2022-08-03T04:13:07.024Z,42.78
2022-08-03T04:14:25.404Z,43.03
2022-08-03T04:15:43.754Z,43.29
2022-08-03T04:17:00.407Z,43.12
2022-08-03T04:18:18.749Z,43.61
2022-08-03T04:19:37.815Z,43.21
2022-08-03T04:20:54.398Z,43.20
2022-08-03T04:22:12.753Z,43.15
2022-08-03T04:23:29.468Z,42.94
2022-08-03T04:24:45.890Z,42.95
2022-08-03T04:26:02.336Z,42.71
2022-08-03T04:27:18.700Z,43.09
2022-08-03T04:28:37.072Z,42.70
2022-08-03T04:29:55.732Z,42.52
2022-08-03T04:31:14.103Z,42.52
2022-08-03T04:32:32.541Z,42.65
2022-08-03T04:33:50.893Z,42.99
2022-08-03T04:35:09.265Z,42.85
2022-08-03T04:36:27.903Z,43.06
2022-08-03T04:37:45.708Z,42.92
2022-08-03T04:39:04.065Z,42.60
2022-08-03T04:40:22.957Z,42.58
2022-08-03T04:42:04.712Z,42.57
2022-08-03T04:43:02.851Z,42.32
2022-08-03T04:44:21.178Z,42.32
2022-08-03T04:45:43.329Z,42.14
2022-08-03T04:47:01.779Z,42.26
2022-08-03T04:48:20.120Z,41.97
2022-08-03T04:49:36.908Z,41.94
2022-08-03T04:50:55.281Z,42.01
2022-08-03T04:52:13.949Z,42.11
2022-08-03T04:53:32.372Z,42.16
2022-08-03T04:54:51.153Z,41.79
2022-08-03T04:56:08.815Z,41.76
2022-08-03T04:57:26.260Z,41.82
2022-08-03T04:58:44.653Z,41.76
2022-08-03T05:00:03.695Z,42.10
2022-08-03T05:01:21.133Z,41.68
2022-08-03T05:02:39.787Z,41.66
2022-08-03T05:03:58.147Z,41.84
2022-08-03T05:05:17.177Z,41.55
2022-08-03T05:06:35.596Z,41.52
2022-08-03T05:07:54.121Z,41.41
2022-08-03T05:09:13.085Z,41.41
2022-08-03T05:10:31.854Z,41.50
2022-08-03T05:11:50.251Z,41.79
2022-08-03T05:13:06.903Z,41.55
2022-08-03T05:14:28.374Z,41.83
2022-08-03T05:15:45.159Z,41.59
2022-08-03T05:17:03.572Z,41.63
2022-08-03T05:18:20.994Z,41.51
2022-08-03T05:19:38.525Z,42.11
2022-08-03T05:20:56.895Z,41.86
2022-08-03T05:22:14.914Z,42.30
2022-08-03T05:23:32.918Z,42.09
2022-08-03T05:24:51.378Z,42.05
2022-08-03T05:26:08.736Z,42.00
2022-08-03T05:27:28.539Z,41.96
2022-08-03T05:28:50.755Z,41.76
2022-08-03T05:30:30.879Z,42.10
2022-08-03T05:31:31.564Z,41.87
2022-08-03T05:32:48.029Z,42.00
2022-08-03T05:34:07.172Z,42.11
2022-08-03T05:36:00.564Z,42.11
2022-08-03T05:36:48.255Z,41.70
2022-08-03T05:38:05.576Z,41.84
2022-08-03T05:39:24.686Z,42.04
2022-08-03T05:40:56.818Z,42.53
2022-08-03T05:42:06.097Z,42.63
2022-08-03T05:43:24.419Z,42.25
2022-08-03T05:44:41.879Z,42.05
2022-08-03T05:46:11.547Z,42.09
2022-08-03T05:47:23.210Z,42.45
2022-08-03T05:48:39.729Z,41.92
2022-08-03T05:49:57.140Z,41.92
2022-08-03T05:51:14.554Z,41.93
2022-08-03T05:52:31.961Z,41.69
2022-08-03T05:53:49.876Z,41.65
2022-08-03T05:55:07.246Z,41.53
2022-08-03T05:56:24.733Z,41.94
2022-08-03T05:57:44.257Z,41.41
2022-08-03T05:59:22.695Z,40.94
2022-08-03T06:00:27.339Z,40.78
2022-08-03T06:01:48.043Z,41.03
2022-08-03T06:03:05.508Z,40.84
2022-08-03T06:04:24.468Z,40.68
2022-08-03T06:05:43.379Z,40.84
2022-08-03T06:07:09.829Z,40.78
2022-08-03T06:08:32.488Z,40.62
2022-08-03T06:10:33.783Z,40.71
2022-08-03T06:11:13.710Z,40.78
2022-08-03T06:12:32.590Z,40.89
2022-08-03T06:13:50.999Z,40.52
2022-08-03T06:15:11.543Z,40.74
2022-08-03T06:16:30.848Z,40.73
2022-08-03T06:17:48.475Z,40.90
2022-08-03T06:19:07.497Z,40.68
2022-08-03T06:20:27.439Z,40.91
2022-08-03T06:21:45.067Z,40.71
2022-08-03T06:23:04.036Z,40.80
2022-08-03T06:24:25.386Z,40.56
2022-08-03T06:25:44.484Z,40.79
2022-08-03T06:27:03.377Z,40.89
2022-08-03T06:28:51.241Z,40.99
2022-08-03T06:29:42.439Z,40.71
2022-08-03T06:31:02.431Z,40.90
2022-08-03T06:32:21.799Z,41.00
2022-08-03T06:34:22.826Z,40.93
2022-08-03T06:35:02.985Z,40.83
2022-08-03T06:36:21.223Z,40.79
2022-08-03T06:37:40.645Z,40.96
2022-08-03T06:38:58.207Z,40.95
2022-08-03T06:40:14.851Z,40.99
2022-08-03T06:41:44.682Z,41.02
2022-08-03T06:43:03.411Z,41.09
2022-08-03T06:44:21.726Z,41.07
2022-08-03T06:45:39.196Z,40.88
2022-08-03T06:46:57.850Z,41.02
2022-08-03T06:50:17.107Z,41.08
2022-08-03T06:52:04.595Z,40.80
2022-08-03T06:52:52.206Z,40.45
2022-08-03T06:54:11.150Z,40.49
2022-08-03T06:55:27.705Z,40.48
2022-08-03T06:56:46.764Z,40.67
2022-08-03T06:58:03.612Z,40.60
2022-08-03T07:00:08.177Z,40.47
2022-08-03T07:00:42.527Z,40.51
2022-08-03T07:01:59.197Z,40.46
2022-08-03T07:03:16.614Z,40.41
2022-08-03T07:04:34.133Z,40.13
2022-08-03T07:05:53.305Z,39.94
2022-08-03T07:07:12.798Z,40.43
2022-08-03T07:08:33.683Z,39.81
2022-08-03T07:09:55.660Z,39.98
2022-08-03T07:11:15.483Z,39.63
2022-08-03T07:12:35.972Z,39.65
2022-08-03T07:13:53.567Z,39.44
2022-08-03T07:15:20.127Z,39.73
2022-08-03T07:16:34.518Z,39.87
2022-08-03T07:17:53.478Z,39.72
2022-08-03T07:19:11.914Z,39.51
2022-08-03T07:20:32.672Z,39.77
2022-08-03T07:21:49.289Z,39.50
2022-08-03T07:23:19.205Z,39.41
2022-08-03T07:24:34.422Z,39.49
2022-08-03T07:25:52.159Z,39.43
2022-08-03T07:27:11.144Z,39.47
2022-08-03T07:28:30.232Z,39.63
2022-08-03T07:29:49.074Z,39.64
2022-08-03T07:31:13.905Z,39.51
2022-08-03T07:32:35.025Z,39.40
2022-08-03T07:33:54.124Z,39.19
2022-08-03T07:35:22.731Z,38.81
2022-08-03T07:36:35.255Z,38.92
2022-08-03T07:37:55.303Z,38.92
2022-08-03T07:39:17.510Z,38.79
2022-08-03T07:40:37.412Z,38.97
2022-08-03T07:41:54.855Z,39.11
2022-08-03T07:43:12.392Z,39.19
2022-08-03T07:44:32.209Z,39.01
2022-08-03T07:45:50.071Z,39.10
2022-08-03T07:47:22.456Z,39.45
2022-08-03T07:48:34.662Z,39.27
2022-08-03T07:49:54.672Z,39.30
2022-08-03T07:51:14.884Z,39.38
2022-08-03T07:52:33.937Z,39.08
2022-08-03T07:53:51.526Z,39.32
2022-08-03T07:55:10.359Z,39.07
2022-08-03T07:56:29.686Z,38.80
2022-08-03T07:57:48.755Z,39.09
2022-08-03T07:59:07.858Z,39.28
2022-08-03T08:00:26.321Z,39.32
2022-08-03T08:01:45.318Z,39.65
2022-08-03T08:03:06.408Z,39.51
2022-08-03T08:04:23.791Z,39.63
2022-08-03T08:05:40.398Z,39.36
2022-08-03T08:06:59.112Z,38.95
2022-08-03T08:08:17.383Z,39.12
2022-08-03T08:09:41.236Z,39.20
2022-08-03T08:11:00.009Z,39.67
2022-08-03T08:12:17.858Z,39.41
2022-08-03T08:13:37.575Z,39.67
2022-08-03T08:14:56.476Z,39.69
2022-08-03T08:16:13.492Z,39.83
2022-08-03T08:17:32.480Z,39.44
2022-08-03T08:18:50.087Z,39.94
2022-08-03T08:20:09.067Z,39.57
2022-08-03T08:21:26.878Z,39.85
2022-08-03T08:22:49.080Z,39.63
2022-08-03T08:24:11.066Z,40.20
2022-08-03T08:25:33.441Z,39.58
2022-08-03T08:26:50.879Z,39.71
2022-08-03T08:28:30.434Z,39.58
2022-08-03T08:29:31.972Z,39.73
2022-08-03T08:30:49.650Z,39.91
2022-08-03T08:32:08.528Z,39.61
2022-08-03T08:33:42.119Z,39.64
2022-08-03T08:34:53.411Z,39.79
2022-08-03T08:36:15.202Z,39.87
2022-08-03T08:37:32.938Z,40.34
2022-08-03T08:38:50.312Z,40.28
2022-08-03T08:40:08.776Z,39.51
2022-08-03T08:41:25.593Z,39.95
2022-08-03T08:42:57.970Z,39.42
2022-08-03T08:44:11.437Z,39.48
2022-08-03T08:45:32.854Z,39.51
2022-08-03T08:46:49.359Z,39.40
2022-08-03T08:48:08.547Z,39.34
2022-08-03T08:49:30.316Z,39.44
2022-08-03T08:50:50.620Z,39.79
2022-08-03T08:52:25.117Z,39.54
2022-08-03T08:53:29.746Z,39.89
2022-08-03T08:54:48.144Z,40.04
2022-08-03T08:56:07.290Z,39.93
2022-08-03T08:57:42.435Z,39.92
2022-08-03T08:58:51.187Z,40.16
2022-08-03T09:00:09.994Z,39.42
2022-08-03T09:01:27.561Z,39.86
2022-08-03T09:02:46.568Z,40.38
2022-08-03T09:05:56.082Z,39.93
2022-08-03T09:07:20.624Z,40.09
2022-08-03T09:08:38.932Z,39.72
2022-08-03T09:10:12.591Z,39.75
2022-08-03T09:11:19.517Z,39.63
2022-08-03T09:12:42.934Z,39.86
2022-08-03T09:14:03.721Z,40.14
2022-08-03T09:15:22.037Z,40.01
2022-08-03T09:16:40.874Z,40.00
2022-08-03T09:17:58.203Z,40.46
2022-08-03T09:19:16.590Z,39.86
2022-08-03T09:20:35.758Z,40.29
2022-08-03T09:21:53.109Z,40.06
2022-08-03T09:23:51.914Z,40.39
2022-08-03T09:24:41.249Z,40.38
2022-08-03T09:25:56.321Z,40.23
2022-08-03T09:27:18.277Z,40.44
2022-08-03T09:29:01.225Z,40.17
2022-08-03T09:29:59.615Z,40.66
2022-08-03T09:31:17.227Z,40.70
2022-08-03T09:32:36.116Z,40.98
2022-08-03T09:33:53.488Z,40.36
2022-08-03T09:35:10.925Z,40.56
2022-08-03T09:36:30.338Z,40.79
2022-08-03T09:38:12.323Z,40.75
2022-08-03T09:39:12.381Z,40.62
2022-08-03T09:40:31.877Z,40.82
2022-08-03T09:41:50.479Z,40.76
2022-08-03T09:43:09.013Z,40.61
2022-08-03T09:44:26.381Z,40.99
2022-08-03T09:45:43.869Z,40.82
2022-08-03T09:47:01.190Z,40.72
2022-08-03T09:48:18.625Z,40.66
2022-08-03T09:49:37.814Z,40.84
2022-08-03T09:50:58.642Z,40.99
2022-08-03T09:52:39.295Z,41.37
2022-08-03T09:53:40.536Z,41.06
2022-08-03T09:55:04.833Z,40.59
2022-08-03T09:56:34.260Z,40.71
2022-08-03T09:57:50.245Z,40.96
2022-08-03T09:59:07.575Z,40.63
2022-08-03T10:00:24.949Z,40.77
2022-08-03T10:01:42.650Z,41.03
2022-08-03T10:02:59.977Z,40.58
2022-08-03T10:04:19.308Z,40.06
2022-08-03T10:05:38.631Z,40.70
2022-08-03T10:06:57.539Z,40.62
2022-08-03T10:08:15.151Z,40.46
2022-08-03T10:09:33.831Z,40.43
2022-08-03T10:10:52.181Z,40.34
2022-08-03T10:12:09.662Z,40.79
2022-08-03T10:13:28.512Z,40.91
2022-08-03T10:14:46.137Z,40.57
2022-08-03T10:16:23.237Z,40.84
2022-08-03T10:17:27.268Z,40.96
2022-08-03T10:18:46.084Z,40.82
2022-08-03T10:20:05.279Z,41.24
2022-08-03T10:21:22.647Z,40.94
2022-08-03T10:22:41.524Z,40.66
2022-08-03T10:23:58.825Z,40.42
2022-08-03T10:25:17.827Z,41.28
2022-08-03T10:26:35.491Z,40.83
2022-08-03T10:27:53.847Z,41.41
2022-08-03T10:29:12.823Z,41.46
2022-08-03T10:30:30.390Z,41.67
2022-08-03T10:31:57.625Z,41.98
2022-08-03T10:33:12.108Z,41.85
2022-08-03T10:34:34.288Z,41.63
2022-08-03T10:35:53.172Z,42.32
2022-08-03T10:37:11.253Z,41.95
2022-08-03T10:38:28.613Z,41.79
2022-08-03T10:39:47.003Z,42.06
2022-08-03T10:41:04.364Z,42.34
2022-08-03T10:42:22.706Z,42.01
2022-08-03T10:43:42.410Z,42.32
2022-08-03T10:45:01.337Z,42.57
2022-08-03T10:46:20.555Z,42.77
2022-08-03T10:47:39.417Z,42.59
2022-08-03T10:48:57.166Z,42.99
2022-08-03T10:50:16.956Z,42.72
2022-08-03T10:51:38.619Z,42.98
2022-08-03T10:53:03.954Z,43.40
2022-08-03T10:54:23.400Z,43.50
2022-08-03T10:55:43.140Z,43.42
2022-08-03T10:57:14.701Z,43.03
2022-08-03T10:58:30.685Z,43.47
2022-08-03T10:59:46.292Z,43.77
2022-08-03T11:01:05.054Z,44.04
2022-08-03T11:02:24.432Z,43.71
2022-08-03T11:03:43.116Z,44.40
2022-08-03T11:05:01.966Z,43.90
2022-08-03T11:06:21.287Z,44.04
2022-08-03T11:07:38.985Z,44.10
2022-08-03T11:08:57.099Z,44.13
2022-08-03T11:10:15.921Z,44.24
2022-08-03T11:11:34.248Z,44.01
2022-08-03T11:12:51.599Z,44.28
2022-08-03T11:14:10.760Z,45.12
2022-08-03T11:15:30.070Z,44.54
2022-08-03T11:16:48.899Z,44.57
2022-08-03T11:18:11.156Z,45.14
2022-08-03T11:19:28.842Z,44.93
2022-08-03T11:20:47.962Z,45.28
2022-08-03T11:22:05.302Z,45.47
2022-08-03T11:24:03.357Z,45.63
2022-08-03T11:24:48.567Z,45.71
2022-08-03T11:26:07.357Z,45.73
2022-08-03T11:27:26.464Z,45.89
2022-08-03T11:28:45.174Z,45.73
2022-08-03T11:30:04.019Z,46.02
2022-08-03T11:31:46.924Z,46.24
2022-08-03T11:32:48.498Z,45.54
2022-08-03T11:34:08.649Z,45.72
2022-08-03T11:35:25.958Z,45.47
2022-08-03T11:36:47.237Z,45.59
2022-08-03T11:38:06.137Z,45.18
2022-08-03T11:39:25.189Z,45.30
2022-08-03T11:40:44.305Z,45.77
2022-08-03T11:42:03.290Z,46.00
2022-08-03T11:43:20.702Z,45.90
2022-08-03T11:44:40.072Z,45.49
2022-08-03T11:45:58.902Z,44.85
2022-08-03T11:47:18.408Z,45.29
2022-08-03T11:48:39.051Z,44.80
2022-08-03T11:49:58.089Z,45.27
2022-08-03T11:51:17.500Z,45.80
2022-08-03T11:52:35.317Z,45.36
2022-08-03T11:53:52.929Z,45.50
2022-08-03T11:55:10.277Z,45.85
2022-08-03T11:56:28.138Z,45.40
2022-08-03T11:59:01.446Z,45.66
2022-08-03T11:59:20.395Z,44.99
2022-08-03T12:00:32.102Z,45.45
2022-08-03T12:01:49.467Z,45.31
2022-08-03T12:03:07.133Z,45.30
2022-08-03T12:04:25.617Z,45.74
2022-08-03T12:05:51.895Z,45.42
2022-08-03T12:07:08.364Z,45.45
2022-08-03T12:08:26.697Z,44.97
2022-08-03T12:09:44.025Z,45.03
2022-08-03T12:11:01.395Z,44.81
2022-08-03T12:12:21.945Z,44.87
2022-08-03T12:14:45.530Z,45.31
2022-08-03T12:15:05.945Z,45.25
2022-08-03T12:16:23.305Z,45.19
2022-08-03T12:17:40.704Z,45.53
2022-08-03T12:18:59.859Z,45.66
2022-08-03T12:20:19.611Z,46.18
2022-08-03T12:21:36.960Z,45.87
2022-08-03T12:22:55.879Z,46.24
2022-08-03T12:24:14.500Z,46.09
2022-08-03T12:25:39.069Z,46.33
2022-08-03T12:26:58.576Z,45.85
2022-08-03T12:28:35.976Z,45.72
2022-08-03T12:29:40.762Z,45.92
2022-08-03T12:30:58.097Z,46.26
2022-08-03T12:32:17.355Z,46.08
2022-08-03T12:33:36.944Z,45.98
2022-08-03T12:34:55.385Z,46.50
2022-08-03T12:36:14.227Z,46.41
2022-08-03T12:37:33.691Z,46.28
2022-08-03T12:38:52.988Z,46.58
2022-08-03T12:40:15.166Z,46.78
2022-08-03T12:41:34.414Z,46.89
2022-08-03T12:42:52.843Z,46.89
2022-08-03T12:44:11.675Z,46.40
2022-08-03T12:45:29.689Z,45.91
2022-08-03T12:46:48.571Z,46.33
2022-08-03T12:48:06.681Z,46.11
2022-08-03T12:49:23.895Z,46.67
2022-08-03T12:50:40.550Z,46.28
2022-08-03T12:52:00.785Z,46.56
2022-08-03T12:53:22.192Z,46.43
2022-08-03T12:54:39.582Z,46.51
2022-08-03T12:56:05.751Z,46.93
2022-08-03T12:57:21.194Z,47.03
2022-08-03T12:58:39.754Z,46.81
2022-08-03T12:59:57.569Z,46.84
2022-08-03T13:01:15.059Z,46.74
2022-08-03T13:02:32.542Z,47.40
2022-08-03T13:03:52.854Z,47.16
2022-08-03T13:05:11.418Z,47.37
2022-08-03T13:06:28.827Z,47.37
2022-08-03T13:07:46.243Z,47.08
2022-08-03T13:09:03.606Z,47.31
2022-08-03T13:10:22.775Z,47.13
2022-08-03T13:11:53.636Z,47.27
2022-08-03T13:13:01.461Z,47.78
2022-08-03T13:14:20.582Z,48.30
2022-08-03T13:15:38.693Z,47.44
2022-08-03T13:17:00.162Z,47.74
2022-08-03T13:18:18.634Z,47.56
2022-08-03T13:19:37.004Z,47.87
2022-08-03T13:20:54.426Z,47.89
2022-08-03T13:22:11.796Z,47.40
2022-08-03T13:23:29.469Z,47.53
2022-08-03T13:24:48.325Z,47.90
2022-08-03T13:26:07.176Z,47.02
2022-08-03T13:28:03.447Z,47.67
2022-08-03T13:28:48.374Z,47.93
2022-08-03T13:30:07.493Z,47.84
2022-08-03T13:31:24.278Z,48.16
2022-08-03T13:32:45.109Z,47.72
2022-08-03T13:34:03.440Z,47.65
2022-08-03T13:35:22.272Z,47.41
2022-08-03T13:37:07.421Z,47.65
2022-08-03T13:38:04.883Z,48.00
2022-08-03T13:39:32.453Z,48.39
2022-08-03T13:40:49.843Z,48.58
2022-08-03T13:42:09.020Z,48.28
2022-08-03T13:43:26.634Z,48.17
2022-08-03T13:44:43.974Z,47.77
2022-08-03T13:46:02.584Z,48.27
2022-08-03T13:47:21.336Z,47.96
2022-08-03T13:48:39.019Z,48.39
2022-08-03T13:50:01.826Z,48.12
2022-08-03T13:51:22.104Z,48.04
2022-08-03T13:52:40.088Z,48.56
2022-08-03T13:53:57.960Z,48.67
2022-08-03T13:55:15.354Z,48.57
2022-08-03T13:56:33.980Z,49.00
2022-08-03T13:58:03.796Z,49.08
2022-08-03T13:59:15.341Z,49.22
2022-08-03T14:00:32.701Z,49.40
2022-08-03T14:01:55.416Z,49.40
2022-08-03T14:03:14.697Z,49.67
2022-08-03T14:04:33.334Z,49.37
2022-08-03T14:05:51.784Z,49.31
2022-08-03T14:07:09.361Z,49.73
2022-08-03T14:08:26.967Z,49.85
2022-08-03T14:09:45.406Z,49.59
2022-08-03T14:11:03.927Z,49.41
2022-08-03T14:12:21.399Z,50.09
2022-08-03T14:13:39.767Z,50.08
2022-08-03T14:15:01.123Z,50.02
2022-08-03T14:16:19.055Z,50.43
2022-08-03T14:17:42.169Z,50.54
2022-08-03T14:19:02.365Z,50.24
2022-08-03T14:20:37.290Z,50.34
2022-08-03T14:21:44.013Z,50.88
2022-08-03T14:23:07.276Z,50.58
2022-08-03T14:24:25.722Z,50.79
2022-08-03T14:25:50.204Z,50.47
2022-08-03T14:27:09.213Z,50.39
2022-08-03T14:28:29.634Z,50.49
2022-08-03T14:29:49.953Z,50.29
2022-08-03T14:32:09.288Z,50.20
2022-08-03T14:32:31.751Z,50.19
2022-08-03T14:33:50.592Z,50.41
2022-08-03T14:35:08.047Z,50.91
2022-08-03T14:36:25.599Z,50.95
2022-08-03T14:37:44.038Z,50.76
2022-08-03T14:39:02.522Z,51.01
2022-08-03T14:40:20.894Z,51.28
2022-08-03T14:41:39.212Z,51.03
2022-08-03T14:42:57.181Z,51.42
2022-08-03T14:44:15.775Z,51.23
2022-08-03T14:45:34.342Z,51.05
2022-08-03T14:46:52.769Z,51.75
2022-08-03T14:50:29.595Z,51.50
2022-08-03T14:50:36.069Z,51.61
2022-08-03T14:50:57.982Z,51.64
2022-08-03T14:52:16.343Z,51.60
2022-08-03T14:53:34.717Z,51.94
2022-08-03T14:54:53.136Z,52.00
2022-08-03T14:56:11.524Z,52.23
2022-08-03T14:57:30.187Z,52.30
2022-08-03T14:58:46.638Z,52.10
2022-08-03T15:00:03.124Z,52.33
2022-08-03T15:02:05.546Z,52.47
2022-08-03T15:02:44.765Z,52.70
2022-08-03T15:04:03.121Z,52.68
2022-08-03T15:05:21.441Z,52.78
2022-08-03T15:06:39.872Z,52.92
2022-08-03T15:07:58.204Z,52.95
2022-08-03T15:09:23.529Z,53.00
2022-08-03T15:10:44.039Z,53.40
2022-08-03T15:12:00.473Z,53.49
2022-08-03T15:13:18.855Z,53.17
2022-08-03T15:14:37.808Z,53.43
2022-08-03T15:15:56.315Z,53.32
2022-08-03T15:17:14.662Z,53.04
2022-08-03T15:18:32.977Z,53.27
2022-08-03T15:20:00.723Z,53.63
2022-08-03T15:21:20.783Z,53.91
2022-08-03T15:22:37.748Z,54.06
2022-08-03T15:23:56.069Z,54.03
2022-08-03T15:26:03.567Z,54.00
2022-08-03T15:26:41.314Z,54.25
2022-08-03T15:28:03.076Z,53.76
2022-08-03T15:30:07.625Z,54.21
2022-08-03T15:30:46.147Z,54.72
2022-08-03T15:32:09.039Z,54.45
2022-08-03T15:33:27.164Z,54.50
2022-08-03T15:34:50.447Z,54.18
2022-08-03T15:36:08.673Z,54.58
2022-08-03T15:37:27.446Z,54.19
2022-08-03T15:38:44.318Z,54.40
2022-08-03T15:40:02.749Z,54.19
2022-08-03T15:41:21.127Z,54.63
2022-08-03T15:42:39.447Z,54.51
2022-08-03T15:43:55.838Z,54.33
2022-08-03T15:45:13.418Z,54.26
2022-08-03T15:46:36.189Z,54.67
2022-08-03T15:47:54.510Z,54.69
2022-08-03T15:49:11.842Z,54.45
2022-08-03T15:50:30.281Z,55.21
2022-08-03T15:51:48.901Z,55.42
2022-08-03T15:53:07.216Z,55.00
2022-08-03T15:54:25.551Z,55.12
2022-08-03T15:55:43.964Z,55.33
2022-08-03T15:57:02.305Z,55.34
2022-08-03T15:59:03.522Z,55.45
2022-08-03T15:59:42.180Z,55.40
2022-08-03T16:01:00.542Z,55.31
2022-08-03T16:02:18.867Z,55.35
2022-08-03T16:03:37.196Z,55.43
2022-08-03T16:04:55.836Z,55.57
2022-08-03T16:06:14.159Z,55.61
2022-08-03T16:07:31.980Z,55.75
2022-08-03T16:08:50.300Z,55.51
2022-08-03T16:10:08.641Z,55.83
2022-08-03T16:11:27.211Z,55.48
2022-08-03T16:12:45.540Z,55.32
2022-08-03T16:14:14.118Z,55.80
2022-08-03T16:15:24.214Z,55.79
2022-08-03T16:16:43.559Z,55.70
2022-08-03T16:18:01.132Z,55.76
2022-08-03T16:19:19.974Z,55.80
2022-08-03T16:20:37.306Z,55.87
2022-08-03T16:21:55.115Z,56.08
2022-08-03T16:23:15.414Z,55.89
2022-08-03T16:24:32.694Z,55.92
2022-08-03T16:25:50.456Z,56.05
2022-08-03T16:27:17.451Z,56.29
2022-08-03T16:28:31.987Z,56.40
2022-08-03T16:29:49.819Z,56.15
2022-08-03T16:31:07.920Z,56.60
2022-08-03T16:32:28.543Z,56.72
2022-08-03T16:33:45.850Z,56.62
2022-08-03T16:35:04.220Z,56.26
2022-08-03T16:36:21.522Z,56.34
2022-08-03T16:37:40.440Z,56.25
2022-08-03T16:39:02.815Z,56.31
2022-08-03T16:40:21.145Z,56.20
2022-08-03T16:41:53.780Z,56.02
2022-08-03T16:43:01.746Z,56.20
2022-08-03T16:44:18.454Z,56.21
2022-08-03T16:45:36.765Z,56.48
2022-08-03T16:46:55.108Z,56.08
2022-08-03T16:48:13.554Z,56.21
2022-08-03T16:49:53.247Z,55.93
2022-08-03T16:50:54.534Z,56.04
2022-08-03T16:52:13.247Z,56.40
2022-08-03T16:53:33.590Z,56.10
2022-08-03T16:54:54.903Z,56.45
2022-08-03T16:56:13.233Z,56.36
2022-08-03T16:57:58.943Z,56.16
2022-08-03T16:58:52.666Z,56.22